sensor_id;sensor_type;location;lat;lon;timestamp;P1;durP1;ratioP1;P2;durP2;ratioP2
43363;SDS011;40636;52.424;-1.948;2023-07-13T00:02:02;4.38;;;3.08;;
43363;SDS011;40636;52.424;-1.948;2023-07-13T00:04:29;4.18;;;2.38;;
43363;SDS011;40636;52.424;-1.948;2023-07-13T00:07:04;4.13;;;2.42;;
43363;SDS011;40636;52.424;-1.948;2023-07-13T00:09:33;3.50;;;2.65;;
43363;SDS011;40636;52.424;-1.948;2023-07-13T00:12:01;3.83;;;2.05;;
43363;SDS011;40636;52.424;-1.948;2023-07-13T00:14:29;5.45;;;2.30;;
43363;SDS011;40636;52.424;-1.948;2023-07-13T00:16:56;3.67;;;2.00;;
43363;SDS011;40636;52.424;-1.948;2023-07-13T00:19:32;5.28;;;2.22;;
43363;SDS011;40636;52.424;-1.948;2023-07-13T00:21:59;7.22;;;3.22;;
43363;SDS011;40636;52.424;-1.948;2023-07-13T00:24:26;6.13;;;2.25;;
43363;SDS011;40636;52.424;-1.948;2023-07-13T00:26:54;3.67;;;2.30;;
43363;SDS011;40636;52.424;-1.948;2023-07-13T00:29:21;4.05;;;2.42;;
43363;SDS011;40636;52.424;-1.948;2023-07-13T00:31:48;7.93;;;2.47;;
43363;SDS011;40636;52.424;-1.948;2023-07-13T00:34:15;4.80;;;2.45;;
43363;SDS011;40636;52.424;-1.948;2023-07-13T00:36:42;6.22;;;2.67;;
43363;SDS011;40636;52.424;-1.948;2023-07-13T00:39:09;7.63;;;2.38;;
43363;SDS011;40636;52.424;-1.948;2023-07-13T00:41:36;3.50;;;2.58;;
43363;SDS011;40636;52.424;-1.948;2023-07-13T00:44:03;4.43;;;2.53;;
43363;SDS011;40636;52.424;-1.948;2023-07-13T00:46:33;5.00;;;2.50;;
43363;SDS011;40636;52.424;-1.948;2023-07-13T00:49:02;4.85;;;2.50;;
43363;SDS011;40636;52.424;-1.948;2023-07-13T00:51:39;5.78;;;3.25;;
43363;SDS011;40636;52.424;-1.948;2023-07-13T00:54:17;5.40;;;2.75;;
43363;SDS011;40636;52.424;-1.948;2023-07-13T00:56:58;4.82;;;2.45;;
43363;SDS011;40636;52.424;-1.948;2023-07-13T00:59:27;5.82;;;2.58;;
43363;SDS011;40636;52.424;-1.948;2023-07-13T01:01:54;4.70;;;2.42;;
43363;SDS011;40636;52.424;-1.948;2023-07-13T01:04:23;4.75;;;2.20;;
43363;SDS011;40636;52.424;-1.948;2023-07-13T01:06:52;6.97;;;2.72;;
43363;SDS011;40636;52.424;-1.948;2023-07-13T01:09:19;6.70;;;2.30;;
43363;SDS011;40636;52.424;-1.948;2023-07-13T01:11:47;8.43;;;3.85;;
43363;SDS011;40636;52.424;-1.948;2023-07-13T01:14:14;3.55;;;2.45;;
43363;SDS011;40636;52.424;-1.948;2023-07-13T01:16:43;8.38;;;2.72;;
43363;SDS011;40636;52.424;-1.948;2023-07-13T01:22:05;5.60;;;2.92;;
43363;SDS011;40636;52.424;-1.948;2023-07-13T01:24:36;3.38;;;2.13;;
43363;SDS011;40636;52.424;-1.948;2023-07-13T01:27:03;5.65;;;2.80;;
43363;SDS011;40636;52.424;-1.948;2023-07-13T01:29:33;11.30;;;3.58;;
43363;SDS011;40636;52.424;-1.948;2023-07-13T01:32:24;5.97;;;3.20;;
43363;SDS011;40636;52.424;-1.948;2023-07-13T01:34:52;5.50;;;2.80;;
43363;SDS011;40636;52.424;-1.948;2023-07-13T01:37:25;5.97;;;3.25;;
43363;SDS011;40636;52.424;-1.948;2023-07-13T01:39:53;5.60;;;2.42;;
43363;SDS011;40636;52.424;-1.948;2023-07-13T01:42:20;5.32;;;3.50;;
43363;SDS011;40636;52.424;-1.948;2023-07-13T01:44:47;4.75;;;2.60;;
43363;SDS011;40636;52.424;-1.948;2023-07-13T01:47:13;4.97;;;2.83;;
43363;SDS011;40636;52.424;-1.948;2023-07-13T01:49:40;4.38;;;2.88;;
43363;SDS011;40636;52.424;-1.948;2023-07-13T01:52:07;6.18;;;3.22;;
43363;SDS011;40636;52.424;-1.948;2023-07-13T01:54:34;7.80;;;3.05;;
43363;SDS011;40636;52.424;-1.948;2023-07-13T01:57:02;7.47;;;2.95;;
43363;SDS011;40636;52.424;-1.948;2023-07-13T01:59:32;6.63;;;3.05;;
43363;SDS011;40636;52.424;-1.948;2023-07-13T02:01:59;7.82;;;2.67;;
43363;SDS011;40636;52.424;-1.948;2023-07-13T02:04:29;5.72;;;2.83;;
43363;SDS011;40636;52.424;-1.948;2023-07-13T02:06:56;7.65;;;2.95;;
43363;SDS011;40636;52.424;-1.948;2023-07-13T02:09:23;8.63;;;2.83;;
43363;SDS011;40636;52.424;-1.948;2023-07-13T02:11:50;7.22;;;3.45;;
43363;SDS011;40636;52.424;-1.948;2023-07-13T02:14:17;7.38;;;2.92;;
43363;SDS011;40636;52.424;-1.948;2023-07-13T02:16:44;5.25;;;2.70;;
43363;SDS011;40636;52.424;-1.948;2023-07-13T02:19:11;3.60;;;3.25;;
43363;SDS011;40636;52.424;-1.948;2023-07-13T02:21:38;11.00;;;3.10;;
43363;SDS011;40636;52.424;-1.948;2023-07-13T02:24:05;4.40;;;2.53;;
43363;SDS011;40636;52.424;-1.948;2023-07-13T02:26:32;8.90;;;2.92;;
43363;SDS011;40636;52.424;-1.948;2023-07-13T02:28:58;6.15;;;2.67;;
43363;SDS011;40636;52.424;-1.948;2023-07-13T02:31:26;4.90;;;2.65;;
43363;SDS011;40636;52.424;-1.948;2023-07-13T02:33:52;7.07;;;3.88;;
43363;SDS011;40636;52.424;-1.948;2023-07-13T02:36:19;4.70;;;3.83;;
43363;SDS011;40636;52.424;-1.948;2023-07-13T02:38:47;6.22;;;2.55;;
43363;SDS011;40636;52.424;-1.948;2023-07-13T02:41:16;5.65;;;2.67;;
43363;SDS011;40636;52.424;-1.948;2023-07-13T02:43:43;9.45;;;2.53;;
43363;SDS011;40636;52.424;-1.948;2023-07-13T02:46:10;7.03;;;2.70;;
43363;SDS011;40636;52.424;-1.948;2023-07-13T02:48:37;4.38;;;2.80;;
43363;SDS011;40636;52.424;-1.948;2023-07-13T02:51:05;7.65;;;2.90;;
43363;SDS011;40636;52.424;-1.948;2023-07-13T02:53:32;4.82;;;2.13;;
43363;SDS011;40636;52.424;-1.948;2023-07-13T02:55:59;5.32;;;3.05;;
43363;SDS011;40636;52.424;-1.948;2023-07-13T02:58:26;3.35;;;2.17;;
43363;SDS011;40636;52.424;-1.948;2023-07-13T03:00:53;7.57;;;2.58;;
43363;SDS011;40636;52.424;-1.948;2023-07-13T03:03:22;9.00;;;3.28;;
43363;SDS011;40636;52.424;-1.948;2023-07-13T03:05:57;5.82;;;2.65;;
43363;SDS011;40636;52.424;-1.948;2023-07-13T03:08:26;4.25;;;2.65;;
43363;SDS011;40636;52.424;-1.948;2023-07-13T03:10:59;7.32;;;2.70;;
43363;SDS011;40636;52.424;-1.948;2023-07-13T03:13:31;8.38;;;3.90;;
43363;SDS011;40636;52.424;-1.948;2023-07-13T03:15:58;6.65;;;2.65;;
43363;SDS011;40636;52.424;-1.948;2023-07-13T03:18:26;4.68;;;3.20;;
43363;SDS011;40636;52.424;-1.948;2023-07-13T03:20:53;6.07;;;2.60;;
43363;SDS011;40636;52.424;-1.948;2023-07-13T03:23:21;6.40;;;4.18;;
43363;SDS011;40636;52.424;-1.948;2023-07-13T03:25:48;4.20;;;2.30;;
43363;SDS011;40636;52.424;-1.948;2023-07-13T03:28:15;3.55;;;2.55;;
43363;SDS011;40636;52.424;-1.948;2023-07-13T03:30:42;3.10;;;2.30;;
43363;SDS011;40636;52.424;-1.948;2023-07-13T03:33:09;3.47;;;2.75;;
43363;SDS011;40636;52.424;-1.948;2023-07-13T03:35:35;7.15;;;3.53;;
43363;SDS011;40636;52.424;-1.948;2023-07-13T03:38:07;8.15;;;4.07;;
43363;SDS011;40636;52.424;-1.948;2023-07-13T03:40:34;6.47;;;3.13;;
43363;SDS011;40636;52.424;-1.948;2023-07-13T03:43:01;6.60;;;3.00;;
43363;SDS011;40636;52.424;-1.948;2023-07-13T03:45:29;4.00;;;2.97;;
43363;SDS011;40636;52.424;-1.948;2023-07-13T03:47:55;7.72;;;3.08;;
43363;SDS011;40636;52.424;-1.948;2023-07-13T03:50:22;4.82;;;3.20;;
43363;SDS011;40636;52.424;-1.948;2023-07-13T03:52:49;7.15;;;3.65;;
43363;SDS011;40636;52.424;-1.948;2023-07-13T03:55:17;6.10;;;3.25;;
43363;SDS011;40636;52.424;-1.948;2023-07-13T03:57:44;6.07;;;3.28;;
43363;SDS011;40636;52.424;-1.948;2023-07-13T04:00:11;4.15;;;3.05;;
43363;SDS011;40636;52.424;-1.948;2023-07-13T04:02:38;7.45;;;3.25;;
43363;SDS011;40636;52.424;-1.948;2023-07-13T04:05:05;9.80;;;3.53;;
43363;SDS011;40636;52.424;-1.948;2023-07-13T04:07:33;5.95;;;3.15;;
43363;SDS011;40636;52.424;-1.948;2023-07-13T04:10:00;7.55;;;3.65;;
43363;SDS011;40636;52.424;-1.948;2023-07-13T04:12:26;4.03;;;3.25;;
43363;SDS011;40636;52.424;-1.948;2023-07-13T04:14:56;5.85;;;3.60;;
43363;SDS011;40636;52.424;-1.948;2023-07-13T04:17:23;5.38;;;3.20;;
43363;SDS011;40636;52.424;-1.948;2023-07-13T04:19:50;6.70;;;3.17;;
43363;SDS011;40636;52.424;-1.948;2023-07-13T04:22:16;5.53;;;3.28;;
43363;SDS011;40636;52.424;-1.948;2023-07-13T04:24:43;9.48;;;4.05;;
43363;SDS011;40636;52.424;-1.948;2023-07-13T04:27:10;6.13;;;3.25;;
43363;SDS011;40636;52.424;-1.948;2023-07-13T04:29:37;7.50;;;3.40;;
43363;SDS011;40636;52.424;-1.948;2023-07-13T04:32:04;7.22;;;2.97;;
43363;SDS011;40636;52.424;-1.948;2023-07-13T04:34:31;6.75;;;3.65;;
43363;SDS011;40636;52.424;-1.948;2023-07-13T04:36:59;7.95;;;3.90;;
43363;SDS011;40636;52.424;-1.948;2023-07-13T04:39:26;6.28;;;2.92;;
43363;SDS011;40636;52.424;-1.948;2023-07-13T04:41:53;4.35;;;2.90;;
43363;SDS011;40636;52.424;-1.948;2023-07-13T04:44:19;4.10;;;2.78;;
43363;SDS011;40636;52.424;-1.948;2023-07-13T04:46:46;4.18;;;2.45;;
43363;SDS011;40636;52.424;-1.948;2023-07-13T04:49:17;4.43;;;2.78;;
43363;SDS011;40636;52.424;-1.948;2023-07-13T04:51:44;5.40;;;2.83;;
43363;SDS011;40636;52.424;-1.948;2023-07-13T04:54:11;6.25;;;2.97;;
43363;SDS011;40636;52.424;-1.948;2023-07-13T04:56:38;6.18;;;3.00;;
43363;SDS011;40636;52.424;-1.948;2023-07-13T04:59:05;3.70;;;2.38;;
43363;SDS011;40636;52.424;-1.948;2023-07-13T05:01:36;4.50;;;2.53;;
43363;SDS011;40636;52.424;-1.948;2023-07-13T05:04:03;5.13;;;2.58;;
43363;SDS011;40636;52.424;-1.948;2023-07-13T05:06:32;7.13;;;2.75;;
43363;SDS011;40636;52.424;-1.948;2023-07-13T05:08:59;4.78;;;2.33;;
43363;SDS011;40636;52.424;-1.948;2023-07-13T05:11:26;9.23;;;2.92;;
43363;SDS011;40636;52.424;-1.948;2023-07-13T05:13:53;4.22;;;2.90;;
43363;SDS011;40636;52.424;-1.948;2023-07-13T05:16:20;6.15;;;2.65;;
43363;SDS011;40636;52.424;-1.948;2023-07-13T05:18:46;5.30;;;2.97;;
43363;SDS011;40636;52.424;-1.948;2023-07-13T05:21:13;5.50;;;2.42;;
43363;SDS011;40636;52.424;-1.948;2023-07-13T05:23:41;3.80;;;2.75;;
43363;SDS011;40636;52.424;-1.948;2023-07-13T05:26:10;11.68;;;2.50;;
43363;SDS011;40636;52.424;-1.948;2023-07-13T05:28:37;7.15;;;2.88;;
43363;SDS011;40636;52.424;-1.948;2023-07-13T05:31:05;4.65;;;2.47;;
43363;SDS011;40636;52.424;-1.948;2023-07-13T05:33:33;6.10;;;2.80;;
43363;SDS011;40636;52.424;-1.948;2023-07-13T05:36:00;4.15;;;3.03;;
43363;SDS011;40636;52.424;-1.948;2023-07-13T05:38:27;6.53;;;3.08;;
43363;SDS011;40636;52.424;-1.948;2023-07-13T05:40:55;4.40;;;2.40;;
43363;SDS011;40636;52.424;-1.948;2023-07-13T05:43:23;7.05;;;3.22;;
43363;SDS011;40636;52.424;-1.948;2023-07-13T05:45:53;5.22;;;2.60;;
43363;SDS011;40636;52.424;-1.948;2023-07-13T05:48:21;4.13;;;2.40;;
43363;SDS011;40636;52.424;-1.948;2023-07-13T05:50:48;5.38;;;2.20;;
43363;SDS011;40636;52.424;-1.948;2023-07-13T05:53:15;6.43;;;2.42;;
43363;SDS011;40636;52.424;-1.948;2023-07-13T05:55:43;6.32;;;2.40;;
43363;SDS011;40636;52.424;-1.948;2023-07-13T05:58:11;4.28;;;2.42;;
43363;SDS011;40636;52.424;-1.948;2023-07-13T06:00:38;5.60;;;2.58;;
43363;SDS011;40636;52.424;-1.948;2023-07-13T06:03:05;3.40;;;2.15;;
43363;SDS011;40636;52.424;-1.948;2023-07-13T06:05:33;3.03;;;2.25;;
43363;SDS011;40636;52.424;-1.948;2023-07-13T06:08:02;2.83;;;2.10;;
43363;SDS011;40636;52.424;-1.948;2023-07-13T06:10:32;4.32;;;3.08;;
43363;SDS011;40636;52.424;-1.948;2023-07-13T06:12:59;6.47;;;2.75;;
43363;SDS011;40636;52.424;-1.948;2023-07-13T06:15:26;6.43;;;3.45;;
43363;SDS011;40636;52.424;-1.948;2023-07-13T06:17:53;9.45;;;2.25;;
43363;SDS011;40636;52.424;-1.948;2023-07-13T06:20:20;4.28;;;2.22;;
43363;SDS011;40636;52.424;-1.948;2023-07-13T06:22:48;5.32;;;2.42;;
43363;SDS011;40636;52.424;-1.948;2023-07-13T06:25:16;4.68;;;2.38;;
43363;SDS011;40636;52.424;-1.948;2023-07-13T06:27:44;4.43;;;2.03;;
43363;SDS011;40636;52.424;-1.948;2023-07-13T06:30:11;4.55;;;2.08;;
43363;SDS011;40636;52.424;-1.948;2023-07-13T06:32:38;5.45;;;1.63;;
43363;SDS011;40636;52.424;-1.948;2023-07-13T06:35:07;4.03;;;2.97;;
43363;SDS011;40636;52.424;-1.948;2023-07-13T06:37:34;5.75;;;2.60;;
43363;SDS011;40636;52.424;-1.948;2023-07-13T06:40:01;4.97;;;2.30;;
43363;SDS011;40636;52.424;-1.948;2023-07-13T06:42:28;6.05;;;2.58;;
43363;SDS011;40636;52.424;-1.948;2023-07-13T06:44:55;5.88;;;1.90;;
43363;SDS011;40636;52.424;-1.948;2023-07-13T06:47:21;3.83;;;1.95;;
43363;SDS011;40636;52.424;-1.948;2023-07-13T06:49:48;9.63;;;2.72;;
43363;SDS011;40636;52.424;-1.948;2023-07-13T06:52:15;7.65;;;2.47;;
43363;SDS011;40636;52.424;-1.948;2023-07-13T06:54:42;6.80;;;2.50;;
43363;SDS011;40636;52.424;-1.948;2023-07-13T06:57:10;3.63;;;1.85;;
43363;SDS011;40636;52.424;-1.948;2023-07-13T06:59:36;2.63;;;2.05;;
43363;SDS011;40636;52.424;-1.948;2023-07-13T07:02:04;5.40;;;1.88;;
43363;SDS011;40636;52.424;-1.948;2023-07-13T07:04:41;5.57;;;1.67;;
43363;SDS011;40636;52.424;-1.948;2023-07-13T07:07:08;3.45;;;1.98;;
43363;SDS011;40636;52.424;-1.948;2023-07-13T07:09:35;2.33;;;1.85;;
43363;SDS011;40636;52.424;-1.948;2023-07-13T07:12:02;5.43;;;2.20;;
43363;SDS011;40636;52.424;-1.948;2023-07-13T07:14:30;4.40;;;2.22;;
43363;SDS011;40636;52.424;-1.948;2023-07-13T07:16:57;4.18;;;2.22;;
43363;SDS011;40636;52.424;-1.948;2023-07-13T07:19:26;4.82;;;2.13;;
43363;SDS011;40636;52.424;-1.948;2023-07-13T07:22:00;4.85;;;2.15;;
43363;SDS011;40636;52.424;-1.948;2023-07-13T07:24:27;4.93;;;1.85;;
43363;SDS011;40636;52.424;-1.948;2023-07-13T07:26:54;2.72;;;2.05;;
43363;SDS011;40636;52.424;-1.948;2023-07-13T07:29:23;10.35;;;2.33;;
43363;SDS011;40636;52.424;-1.948;2023-07-13T07:31:55;2.38;;;1.73;;
43363;SDS011;40636;52.424;-1.948;2023-07-13T07:34:25;2.42;;;1.65;;
43363;SDS011;40636;52.424;-1.948;2023-07-13T07:36:52;2.75;;;1.55;;
43363;SDS011;40636;52.424;-1.948;2023-07-13T07:39:22;7.28;;;2.10;;
43363;SDS011;40636;52.424;-1.948;2023-07-13T07:41:58;4.75;;;1.83;;
43363;SDS011;40636;52.424;-1.948;2023-07-13T07:44:32;3.58;;;2.10;;
43363;SDS011;40636;52.424;-1.948;2023-07-13T07:47:00;4.85;;;2.08;;
43363;SDS011;40636;52.424;-1.948;2023-07-13T07:49:27;3.55;;;1.73;;
43363;SDS011;40636;52.424;-1.948;2023-07-13T07:51:54;3.15;;;2.00;;
43363;SDS011;40636;52.424;-1.948;2023-07-13T07:54:22;5.03;;;1.80;;
43363;SDS011;40636;52.424;-1.948;2023-07-13T07:57:08;4.13;;;1.85;;
43363;SDS011;40636;52.424;-1.948;2023-07-13T07:59:39;6.10;;;2.20;;
43363;SDS011;40636;52.424;-1.948;2023-07-13T08:02:10;2.88;;;1.80;;
43363;SDS011;40636;52.424;-1.948;2023-07-13T08:04:57;2.33;;;1.85;;
43363;SDS011;40636;52.424;-1.948;2023-07-13T08:07:27;7.65;;;1.90;;
43363;SDS011;40636;52.424;-1.948;2023-07-13T08:09:57;3.00;;;1.77;;
43363;SDS011;40636;52.424;-1.948;2023-07-13T08:12:25;6.25;;;1.90;;
43363;SDS011;40636;52.424;-1.948;2023-07-13T08:14:55;4.93;;;2.05;;
43363;SDS011;40636;52.424;-1.948;2023-07-13T08:17:27;4.22;;;1.60;;
43363;SDS011;40636;52.424;-1.948;2023-07-13T08:19:54;7.07;;;1.70;;
43363;SDS011;40636;52.424;-1.948;2023-07-13T08:22:21;4.10;;;1.77;;
43363;SDS011;40636;52.424;-1.948;2023-07-13T08:24:48;4.95;;;1.50;;
43363;SDS011;40636;52.424;-1.948;2023-07-13T08:27:22;3.47;;;1.38;;
43363;SDS011;40636;52.424;-1.948;2023-07-13T08:29:51;3.35;;;1.80;;
43363;SDS011;40636;52.424;-1.948;2023-07-13T08:32:19;3.85;;;1.92;;
43363;SDS011;40636;52.424;-1.948;2023-07-13T08:34:47;3.92;;;1.42;;
43363;SDS011;40636;52.424;-1.948;2023-07-13T08:37:15;3.75;;;1.60;;
43363;SDS011;40636;52.424;-1.948;2023-07-13T08:39:43;3.15;;;1.42;;
43363;SDS011;40636;52.424;-1.948;2023-07-13T08:45:04;3.67;;;1.10;;
43363;SDS011;40636;52.424;-1.948;2023-07-13T08:47:40;2.55;;;1.77;;
43363;SDS011;40636;52.424;-1.948;2023-07-13T08:50:15;3.67;;;1.60;;
43363;SDS011;40636;52.424;-1.948;2023-07-13T08:52:44;2.42;;;1.40;;
43363;SDS011;40636;52.424;-1.948;2023-07-13T08:55:14;1.75;;;1.30;;
43363;SDS011;40636;52.424;-1.948;2023-07-13T08:57:44;1.98;;;1.65;;
43363;SDS011;40636;52.424;-1.948;2023-07-13T09:00:15;5.32;;;1.70;;
43363;SDS011;40636;52.424;-1.948;2023-07-13T09:02:46;1.83;;;1.25;;
43363;SDS011;40636;52.424;-1.948;2023-07-13T09:05:24;5.32;;;1.60;;
43363;SDS011;40636;52.424;-1.948;2023-07-13T09:16:41;2.63;;;1.02;;
43363;SDS011;40636;52.424;-1.948;2023-07-13T09:19:13;2.55;;;1.90;;
43363;SDS011;40636;52.424;-1.948;2023-07-13T09:21:48;7.25;;;1.73;;
43363;SDS011;40636;52.424;-1.948;2023-07-13T09:26:57;2.15;;;1.60;;
43363;SDS011;40636;52.424;-1.948;2023-07-13T09:29:29;2.83;;;1.60;;
43363;SDS011;40636;52.424;-1.948;2023-07-13T09:32:00;4.53;;;1.63;;
43363;SDS011;40636;52.424;-1.948;2023-07-13T09:34:30;3.25;;;2.03;;
43363;SDS011;40636;52.424;-1.948;2023-07-13T09:36:59;6.93;;;2.40;;
43363;SDS011;40636;52.424;-1.948;2023-07-13T09:39:30;2.15;;;1.52;;
43363;SDS011;40636;52.424;-1.948;2023-07-13T09:47:15;3.30;;;1.60;;
43363;SDS011;40636;52.424;-1.948;2023-07-13T09:50:04;4.60;;;2.10;;
43363;SDS011;40636;52.424;-1.948;2023-07-13T09:52:44;2.45;;;1.35;;
43363;SDS011;40636;52.424;-1.948;2023-07-13T09:57:52;4.63;;;1.52;;
43363;SDS011;40636;52.424;-1.948;2023-07-13T10:00:23;5.32;;;1.90;;
43363;SDS011;40636;52.424;-1.948;2023-07-13T10:03:09;3.97;;;1.83;;
43363;SDS011;40636;52.424;-1.948;2023-07-13T10:05:42;2.10;;;1.35;;
43363;SDS011;40636;52.424;-1.948;2023-07-13T10:08:17;2.65;;;1.98;;
43363;SDS011;40636;52.424;-1.948;2023-07-13T10:10:58;2.40;;;1.30;;
43363;SDS011;40636;52.424;-1.948;2023-07-13T10:13:29;4.50;;;1.65;;
43363;SDS011;40636;52.424;-1.948;2023-07-13T10:16:04;6.97;;;2.30;;
43363;SDS011;40636;52.424;-1.948;2023-07-13T10:21:38;2.83;;;1.55;;
43363;SDS011;40636;52.424;-1.948;2023-07-13T10:24:17;2.45;;;1.42;;
43363;SDS011;40636;52.424;-1.948;2023-07-13T10:27:10;3.72;;;1.58;;
43363;SDS011;40636;52.424;-1.948;2023-07-13T10:29:44;2.88;;;1.40;;
43363;SDS011;40636;52.424;-1.948;2023-07-13T10:32:14;2.15;;;1.10;;
43363;SDS011;40636;52.424;-1.948;2023-07-13T10:34:43;2.20;;;1.35;;
43363;SDS011;40636;52.424;-1.948;2023-07-13T10:37:18;2.13;;;1.35;;
43363;SDS011;40636;52.424;-1.948;2023-07-13T10:39:49;3.08;;;1.08;;
43363;SDS011;40636;52.424;-1.948;2023-07-13T10:42:43;4.47;;;2.20;;
43363;SDS011;40636;52.424;-1.948;2023-07-13T10:45:15;2.05;;;1.13;;
43363;SDS011;40636;52.424;-1.948;2023-07-13T10:47:45;2.25;;;1.38;;
43363;SDS011;40636;52.424;-1.948;2023-07-13T10:50:17;3.78;;;1.73;;
43363;SDS011;40636;52.424;-1.948;2023-07-13T10:52:49;3.53;;;1.67;;
43363;SDS011;40636;52.424;-1.948;2023-07-13T10:55:34;5.13;;;1.17;;
43363;SDS011;40636;52.424;-1.948;2023-07-13T11:01:14;4.38;;;2.45;;
43363;SDS011;40636;52.424;-1.948;2023-07-13T11:06:15;2.15;;;1.30;;
43363;SDS011;40636;52.424;-1.948;2023-07-13T11:08:56;2.50;;;1.55;;
43363;SDS011;40636;52.424;-1.948;2023-07-13T11:13:57;2.05;;;1.50;;
43363;SDS011;40636;52.424;-1.948;2023-07-13T11:16:34;2.58;;;1.70;;
43363;SDS011;40636;52.424;-1.948;2023-07-13T11:21:34;2.70;;;1.63;;
43363;SDS011;40636;52.424;-1.948;2023-07-13T11:24:13;1.90;;;1.35;;
43363;SDS011;40636;52.424;-1.948;2023-07-13T11:26:44;2.78;;;1.80;;
43363;SDS011;40636;52.424;-1.948;2023-07-13T11:31:53;4.28;;;2.15;;
43363;SDS011;40636;52.424;-1.948;2023-07-13T11:34:27;2.00;;;1.30;;
43363;SDS011;40636;52.424;-1.948;2023-07-13T11:36:57;5.25;;;1.40;;
43363;SDS011;40636;52.424;-1.948;2023-07-13T11:39:32;5.13;;;2.05;;
43363;SDS011;40636;52.424;-1.948;2023-07-13T11:42:03;4.80;;;2.10;;
43363;SDS011;40636;52.424;-1.948;2023-07-13T11:44:33;4.18;;;1.83;;
43363;SDS011;40636;52.424;-1.948;2023-07-13T11:47:11;3.38;;;2.08;;
43363;SDS011;40636;52.424;-1.948;2023-07-13T11:49:44;4.22;;;1.63;;
43363;SDS011;40636;52.424;-1.948;2023-07-13T11:52:14;2.30;;;1.58;;
43363;SDS011;40636;52.424;-1.948;2023-07-13T11:54:55;2.00;;;1.27;;
43363;SDS011;40636;52.424;-1.948;2023-07-13T11:57:30;1.77;;;1.35;;
43363;SDS011;40636;52.424;-1.948;2023-07-13T12:00:04;3.65;;;1.75;;
43363;SDS011;40636;52.424;-1.948;2023-07-13T12:02:40;1.88;;;1.42;;
43363;SDS011;40636;52.424;-1.948;2023-07-13T12:05:11;1.45;;;0.88;;
43363;SDS011;40636;52.424;-1.948;2023-07-13T12:07:40;4.47;;;1.65;;
43363;SDS011;40636;52.424;-1.948;2023-07-13T12:12:36;1.48;;;1.10;;
43363;SDS011;40636;52.424;-1.948;2023-07-13T12:15:07;2.85;;;1.48;;
43363;SDS011;40636;52.424;-1.948;2023-07-13T12:17:35;2.35;;;1.50;;
43363;SDS011;40636;52.424;-1.948;2023-07-13T12:20:04;1.45;;;1.33;;
43363;SDS011;40636;52.424;-1.948;2023-07-13T12:22:46;3.25;;;1.38;;
43363;SDS011;40636;52.424;-1.948;2023-07-13T12:25:14;2.50;;;1.42;;
43363;SDS011;40636;52.424;-1.948;2023-07-13T12:27:42;3.17;;;1.38;;
43363;SDS011;40636;52.424;-1.948;2023-07-13T12:30:31;2.90;;;1.30;;
43363;SDS011;40636;52.424;-1.948;2023-07-13T12:33:06;1.27;;;1.10;;
43363;SDS011;40636;52.424;-1.948;2023-07-13T12:35:44;2.00;;;1.17;;
43363;SDS011;40636;52.424;-1.948;2023-07-13T12:38:15;3.03;;;1.42;;
43363;SDS011;40636;52.424;-1.948;2023-07-13T12:40:43;5.25;;;1.33;;
43363;SDS011;40636;52.424;-1.948;2023-07-13T12:43:13;1.38;;;1.10;;
43363;SDS011;40636;52.424;-1.948;2023-07-13T12:48:42;3.17;;;1.20;;
43363;SDS011;40636;52.424;-1.948;2023-07-13T12:51:26;1.98;;;1.15;;
43363;SDS011;40636;52.424;-1.948;2023-07-13T12:53:59;4.53;;;1.50;;
43363;SDS011;40636;52.424;-1.948;2023-07-13T12:56:38;2.78;;;1.70;;
43363;SDS011;40636;52.424;-1.948;2023-07-13T12:59:05;4.05;;;1.55;;
43363;SDS011;40636;52.424;-1.948;2023-07-13T13:01:41;3.50;;;1.50;;
43363;SDS011;40636;52.424;-1.948;2023-07-13T13:04:08;2.05;;;1.40;;
43363;SDS011;40636;52.424;-1.948;2023-07-13T13:06:38;2.55;;;1.35;;
43363;SDS011;40636;52.424;-1.948;2023-07-13T13:09:11;2.83;;;1.30;;
43363;SDS011;40636;52.424;-1.948;2023-07-13T13:11:40;2.63;;;1.48;;
43363;SDS011;40636;52.424;-1.948;2023-07-13T13:14:08;1.60;;;1.33;;
43363;SDS011;40636;52.424;-1.948;2023-07-13T13:16:37;4.00;;;1.80;;
43363;SDS011;40636;52.424;-1.948;2023-07-13T13:19:20;2.90;;;1.40;;
43363;SDS011;40636;52.424;-1.948;2023-07-13T13:21:53;2.95;;;1.90;;
43363;SDS011;40636;52.424;-1.948;2023-07-13T13:24:23;3.38;;;1.25;;
43363;SDS011;40636;52.424;-1.948;2023-07-13T13:26:52;6.60;;;2.17;;
43363;SDS011;40636;52.424;-1.948;2023-07-13T13:29:21;4.05;;;1.27;;
43363;SDS011;40636;52.424;-1.948;2023-07-13T13:31:53;3.20;;;1.77;;
43363;SDS011;40636;52.424;-1.948;2023-07-13T13:34:23;2.38;;;1.42;;
43363;SDS011;40636;52.424;-1.948;2023-07-13T13:36:51;3.03;;;1.25;;
43363;SDS011;40636;52.424;-1.948;2023-07-13T13:39:25;2.10;;;1.40;;
43363;SDS011;40636;52.424;-1.948;2023-07-13T13:41:58;2.15;;;1.50;;
43363;SDS011;40636;52.424;-1.948;2023-07-13T13:44:25;1.98;;;1.55;;
43363;SDS011;40636;52.424;-1.948;2023-07-13T13:46:53;4.88;;;2.03;;
43363;SDS011;40636;52.424;-1.948;2023-07-13T13:49:23;4.43;;;1.50;;
43363;SDS011;40636;52.424;-1.948;2023-07-13T13:51:52;2.85;;;1.90;;
43363;SDS011;40636;52.424;-1.948;2023-07-13T13:54:20;2.65;;;1.35;;
43363;SDS011;40636;52.424;-1.948;2023-07-13T13:56:49;2.92;;;1.70;;
43363;SDS011;40636;52.424;-1.948;2023-07-13T13:59:17;2.15;;;1.83;;
43363;SDS011;40636;52.424;-1.948;2023-07-13T14:01:49;3.22;;;1.50;;
43363;SDS011;40636;52.424;-1.948;2023-07-13T14:04:20;4.68;;;1.80;;
43363;SDS011;40636;52.424;-1.948;2023-07-13T14:06:48;2.83;;;1.25;;
43363;SDS011;40636;52.424;-1.948;2023-07-13T14:09:17;5.07;;;1.50;;
43363;SDS011;40636;52.424;-1.948;2023-07-13T14:11:46;4.15;;;1.50;;
43363;SDS011;40636;52.424;-1.948;2023-07-13T14:14:20;2.05;;;1.38;;
43363;SDS011;40636;52.424;-1.948;2023-07-13T14:16:49;2.95;;;1.30;;
43363;SDS011;40636;52.424;-1.948;2023-07-13T14:19:20;2.35;;;1.40;;
43363;SDS011;40636;52.424;-1.948;2023-07-13T14:21:48;2.55;;;1.65;;
43363;SDS011;40636;52.424;-1.948;2023-07-13T14:24:16;1.73;;;1.60;;
43363;SDS011;40636;52.424;-1.948;2023-07-13T14:26:45;2.13;;;1.92;;
43363;SDS011;40636;52.424;-1.948;2023-07-13T14:29:16;2.05;;;1.25;;
43363;SDS011;40636;52.424;-1.948;2023-07-13T14:31:49;4.88;;;1.30;;
43363;SDS011;40636;52.424;-1.948;2023-07-13T14:34:16;1.88;;;1.25;;
43363;SDS011;40636;52.424;-1.948;2023-07-13T14:36:44;3.58;;;1.33;;
43363;SDS011;40636;52.424;-1.948;2023-07-13T14:39:14;2.63;;;1.48;;
43363;SDS011;40636;52.424;-1.948;2023-07-13T14:41:43;2.50;;;1.38;;
43363;SDS011;40636;52.424;-1.948;2023-07-13T14:44:12;1.92;;;1.42;;
43363;SDS011;40636;52.424;-1.948;2023-07-13T14:46:39;2.47;;;1.67;;
43363;SDS011;40636;52.424;-1.948;2023-07-13T14:49:15;2.08;;;1.50;;
43363;SDS011;40636;52.424;-1.948;2023-07-13T14:51:50;3.03;;;1.30;;
43363;SDS011;40636;52.424;-1.948;2023-07-13T14:54:17;2.45;;;1.52;;
43363;SDS011;40636;52.424;-1.948;2023-07-13T14:56:44;3.53;;;1.70;;
43363;SDS011;40636;52.424;-1.948;2023-07-13T14:59:11;1.73;;;1.20;;
43363;SDS011;40636;52.424;-1.948;2023-07-13T15:01:39;5.25;;;1.88;;
43363;SDS011;40636;52.424;-1.948;2023-07-13T15:04:06;3.10;;;1.42;;
43363;SDS011;40636;52.424;-1.948;2023-07-13T15:09:21;1.75;;;1.20;;
43363;SDS011;40636;52.424;-1.948;2023-07-13T15:11:48;2.97;;;1.25;;
43363;SDS011;40636;52.424;-1.948;2023-07-13T15:14:15;1.70;;;1.00;;
43363;SDS011;40636;52.424;-1.948;2023-07-13T15:16:49;2.70;;;1.30;;
43363;SDS011;40636;52.424;-1.948;2023-07-13T15:19:17;1.73;;;1.23;;
43363;SDS011;40636;52.424;-1.948;2023-07-13T15:21:46;1.38;;;1.08;;
43363;SDS011;40636;52.424;-1.948;2023-07-13T15:24:14;1.48;;;1.00;;
43363;SDS011;40636;52.424;-1.948;2023-07-13T15:26:42;1.63;;;1.25;;
43363;SDS011;40636;52.424;-1.948;2023-07-13T15:29:11;2.53;;;1.40;;
43363;SDS011;40636;52.424;-1.948;2023-07-13T15:31:38;1.45;;;1.33;;
43363;SDS011;40636;52.424;-1.948;2023-07-13T15:34:13;1.40;;;1.00;;
43363;SDS011;40636;52.424;-1.948;2023-07-13T15:36:43;3.58;;;1.10;;
43363;SDS011;40636;52.424;-1.948;2023-07-13T15:39:16;1.92;;;1.00;;